Time;durP1;ratioP1;P1;durP2;ratioP2;P2;SDS_P1;SDS_P2;PMS_P1;PMS_P2;Temp;Humidity;BMP_temperature;BMP_pressure;BME280_temperature;BME280_humidity;BME280_pressure;Samples;Min_cycle;Max_cycle;Signal;HPM_P1;HPM_P2
2021/11/13 00:01:24;;;;;;;47.83;28.87;;;11.10;99.90;;;;;;5139459;27;38475;-78
2021/11/13 00:03:50;;;;;;;49.53;28.80;;;11.10;99.90;;;;;;5136026;27;37948;-79
2021/11/13 00:06:17;;;;;;;45.57;29.17;;;11.20;99.90;;;;;;5142462;27;20075;-79
2021/11/13 00:08:43;;;;;;;45.27;27.80;;;11.20;99.90;;;;;;5137611;27;38775;-78
2021/11/13 00:11:11;;;;;;;52.53;29.70;;;11.20;99.90;;;;;;5138765;27;39081;-77
2021/11/13 00:13:39;;;;;;;52.77;30.87;;;11.20;99.90;;;;;;5140152;27;39048;-77
2021/11/13 00:16:06;;;;;;;53.50;29.57;;;11.20;99.90;;;;;;5124362;27;37821;-77
2021/11/13 00:18:35;;;;;;;51.27;32.33;;;11.20;99.90;;;;;;5124648;27;39864;-77
2021/11/13 00:21:05;;;;;;;47.53;29.67;;;11.20;99.90;;;;;;5116343;27;38248;-77
2021/11/13 00:23:32;;;;;;;56.40;30.57;;;11.20;99.90;;;;;;5121793;27;39215;-79
2021/11/13 00:25:59;;;;;;;52.27;32.37;;;11.20;99.90;;;;;;5124636;27;37242;-77
2021/11/13 00:28:26;;;;;;;52.17;30.80;;;11.20;99.90;;;;;;5135655;27;40850;-77
2021/11/13 00:30:52;;;;;;;58.57;33.73;;;11.20;99.90;;;;;;5137174;27;39322;-77
2021/11/13 00:33:18;;;;;;;54.03;31.97;;;11.20;99.90;;;;;;5131871;27;38475;-77
2021/11/13 00:35:44;;;;;;;59.87;34.90;;;11.30;99.90;;;;;;5137025;27;37897;-78
2021/11/13 00:38:11;;;;;;;48.50;31.07;;;11.30;99.90;;;;;;5137431;27;39619;-78
2021/11/13 00:40:38;;;;;;;53.30;32.43;;;11.30;99.90;;;;;;5136521;27;39431;-77
2021/11/13 00:43:04;;;;;;;46.97;31.17;;;11.40;99.90;;;;;;5136180;27;39020;-77
2021/11/13 00:45:30;;;;;;;50.43;31.90;;;11.40;99.90;;;;;;5138530;27;37881;-78
2021/11/13 00:47:57;;;;;;;47.77;28.67;;;11.40;99.90;;;;;;5130412;27;40597;-78
2021/11/13 00:50:23;;;;;;;54.63;32.23;;;11.40;99.90;;;;;;5135110;27;39308;-78
2021/11/13 00:52:49;;;;;;;55.13;32.87;;;11.50;99.90;;;;;;5130290;27;38701;-76
2021/11/13 00:55:18;;;;;;;48.80;29.30;;;11.50;99.90;;;;;;5115143;27;36833;-77
2021/11/13 00:57:45;;;;;;;54.80;31.43;;;11.60;99.90;;;;;;5132704;27;41499;-80
2021/11/13 01:00:15;;;;;;;40.50;27.00;;;11.60;99.90;;;;;;5114032;27;37442;-79
2021/11/13 01:02:42;;;;;;;49.23;27.57;;;11.60;99.90;;;;;;5115316;27;38671;-79
2021/11/13 01:05:09;;;;;;;44.00;29.90;;;11.70;99.90;;;;;;5118879;27;36582;-78
2021/11/13 01:07:36;;;;;;;47.47;29.00;;;11.70;99.90;;;;;;5124430;27;39493;-77
2021/11/13 01:10:06;;;;;;;44.20;28.90;;;11.70;99.90;;;;;;5111617;27;37464;-78
2021/11/13 01:12:32;;;;;;;40.65;26.17;;;11.70;99.90;;;;;;5115094;27;47018;-78
2021/11/13 01:14:59;;;;;;;37.53;24.77;;;11.70;99.90;;;;;;5120712;27;37193;-79
2021/11/13 01:17:25;;;;;;;44.95;26.02;;;11.70;99.90;;;;;;5118646;27;39560;-79
2021/11/13 01:19:51;;;;;;;41.33;24.97;;;11.80;99.90;;;;;;5112715;27;37195;-78
2021/11/13 01:22:17;;;;;;;42.43;26.27;;;11.80;99.90;;;;;;5114419;27;37243;-79
2021/11/13 01:24:44;;;;;;;43.43;23.80;;;11.80;99.90;;;;;;5122059;27;37673;-77
2021/11/13 01:27:10;;;;;;;33.27;21.17;;;11.90;99.90;;;;;;5110472;27;37566;-78
2021/11/13 01:29:36;;;;;;;33.53;20.30;;;11.90;99.90;;;;;;5132975;27;38550;-78
2021/11/13 01:32:03;;;;;;;38.20;23.00;;;11.90;99.90;;;;;;5133048;27;39833;-78
2021/11/13 01:34:30;;;;;;;37.27;22.07;;;11.90;99.90;;;;;;5131457;27;36749;-78
2021/11/13 01:36:56;;;;;;;37.92;19.60;;;12.00;99.90;;;;;;5131402;27;38610;-79
2021/11/13 01:39:22;;;;;;;35.47;19.08;;;11.90;99.90;;;;;;5132309;27;40207;-78
2021/11/13 01:41:49;;;;;;;26.55;17.90;;;12.00;99.90;;;;;;5117569;27;38990;-77
2021/11/13 01:44:15;;;;;;;34.60;19.45;;;12.00;99.90;;;;;;5123045;27;36445;-80
2021/11/13 01:46:41;;;;;;;31.63;20.38;;;12.10;99.90;;;;;;5136373;27;40804;-79
2021/11/13 01:49:08;;;;;;;32.40;19.77;;;12.10;99.90;;;;;;5136031;27;38260;-79
2021/11/13 01:51:35;;;;;;;31.08;19.33;;;12.00;99.90;;;;;;5128155;27;38743;-80
2021/11/13 01:54:05;;;;;;;31.08;18.15;;;12.10;99.90;;;;;;5133092;27;37621;-80
2021/11/13 01:56:32;;;;;;;28.65;17.73;;;12.00;99.90;;;;;;5137971;27;47920;-80
2021/11/13 01:58:59;;;;;;;36.60;19.10;;;12.10;99.90;;;;;;5132143;27;39698;-80
2021/11/13 02:01:26;;;;;;;31.80;19.35;;;12.00;99.90;;;;;;5133208;27;39634;-78
2021/11/13 02:03:53;;;;;;;42.20;21.60;;;12.10;99.90;;;;;;5134832;27;37252;-80
2021/11/13 02:06:20;;;;;;;37.65;21.17;;;12.10;99.90;;;;;;5134905;27;38846;-80
2021/11/13 02:08:47;;;;;;;30.15;18.80;;;12.10;99.90;;;;;;5132921;27;38568;-79
2021/11/13 02:11:16;;;;;;;33.65;18.80;;;12.10;99.90;;;;;;5128092;27;37463;-79
2021/11/13 02:13:43;;;;;;;46.05;20.63;;;12.10;99.90;;;;;;5127455;27;36191;-79
2021/11/13 02:16:09;;;;;;;35.58;19.38;;;12.10;99.90;;;;;;5128706;27;39416;-80
2021/11/13 02:18:40;;;;;;;29.10;18.52;;;12.20;99.90;;;;;;5117595;27;38739;-81
2021/11/13 02:21:07;;;;;;;29.77;17.10;;;12.10;99.90;;;;;;5128360;27;38427;-78
2021/11/13 02:23:33;;;;;;;27.20;17.60;;;12.10;99.90;;;;;;5127916;27;37683;-78
2021/11/13 02:26:00;;;;;;;34.70;17.75;;;12.20;99.90;;;;;;5131794;27;40533;-78
2021/11/13 02:28:27;;;;;;;32.00;18.58;;;12.10;99.90;;;;;;5126746;27;39101;-78
2021/11/13 02:30:58;;;;;;;25.70;16.60;;;12.20;99.90;;;;;;5116230;27;39126;-79
2021/11/13 02:33:25;;;;;;;35.88;17.00;;;12.20;99.90;;;;;;5133593;27;38128;-78
2021/11/13 02:35:53;;;;;;;37.88;16.42;;;12.20;99.90;;;;;;5124103;27;39774;-78
2021/11/13 02:38:25;;;;;;;27.45;15.50;;;12.20;99.90;;;;;;5131171;27;38751;-79
2021/11/13 02:40:56;;;;;;;36.45;18.02;;;12.20;99.90;;;;;;5124200;27;39956;-77
2021/11/13 02:43:24;;;;;;;28.20;14.02;;;12.20;99.90;;;;;;5111607;27;37149;-79
2021/11/13 02:45:52;;;;;;;29.17;14.75;;;12.20;99.90;;;;;;5114671;27;39028;-80
2021/11/13 02:48:19;;;;;;;41.13;16.88;;;12.20;99.90;;;;;;5125817;27;37997;-80
2021/11/13 02:50:46;;;;;;;35.13;13.73;;;12.20;99.90;;;;;;5124930;27;35973;-77
2021/11/13 02:53:18;;;;;;;30.58;15.32;;;12.30;99.90;;;;;;5130347;27;38551;-80
2021/11/13 02:55:44;;;;;;;29.00;14.27;;;12.20;99.90;;;;;;5128942;27;38299;-79
2021/11/13 02:58:10;;;;;;;35.17;15.77;;;12.20;99.90;;;;;;5133094;27;37832;-79
2021/11/13 03:00:38;;;;;;;34.05;16.90;;;12.20;99.90;;;;;;5128148;27;38283;-79
2021/11/13 03:03:04;;;;;;;34.85;17.60;;;12.20;99.90;;;;;;5130632;27;37247;-78
2021/11/13 03:05:33;;;;;;;33.70;17.98;;;12.20;99.90;;;;;;5114096;27;39619;-80
2021/11/13 03:08:01;;;;;;;36.25;16.80;;;12.30;99.90;;;;;;5127632;27;37316;-78
2021/11/13 03:10:32;;;;;;;26.35;14.55;;;12.30;99.90;;;;;;5133505;27;40426;-79
2021/11/13 03:12:59;;;;;;;34.05;16.17;;;12.30;99.90;;;;;;5129349;27;38340;-79
2021/11/13 03:15:25;;;;;;;30.67;16.33;;;12.30;99.90;;;;;;5130415;27;40093;-80
2021/11/13 03:17:53;;;;;;;37.42;17.30;;;12.30;99.90;;;;;;5135314;27;38188;-79
2021/11/13 03:20:22;;;;;;;32.42;14.50;;;12.30;99.90;;;;;;5128477;27;38497;-80
2021/11/13 03:22:49;;;;;;;28.02;13.15;;;12.30;99.90;;;;;;5133651;27;36306;-77
2021/11/13 03:25:21;;;;;;;34.70;16.05;;;12.30;99.90;;;;;;5137211;27;39941;-79
2021/11/13 03:27:52;;;;;;;45.50;18.30;;;12.40;99.90;;;;;;5125265;27;38277;-77
2021/11/13 03:30:21;;;;;;;30.60;14.00;;;12.40;99.90;;;;;;5127816;27;38276;-78
2021/11/13 03:32:48;;;;;;;33.47;15.23;;;12.40;99.90;;;;;;5131124;27;37749;-77
2021/11/13 03:35:16;;;;;;;41.67;17.07;;;12.40;99.90;;;;;;5117780;27;41117;-77
2021/11/13 03:37:43;;;;;;;30.30;14.40;;;12.40;99.90;;;;;;5126770;27;38585;-79
2021/11/13 03:40:10;;;;;;;33.20;15.03;;;12.40;99.90;;;;;;5132739;27;37894;-78
2021/11/13 03:42:38;;;;;;;25.40;13.68;;;12.50;99.90;;;;;;5136167;27;38199;-78
2021/11/13 03:45:06;;;;;;;34.67;13.13;;;12.50;99.90;;;;;;5131428;27;38753;-77
2021/11/13 03:47:33;;;;;;;28.88;13.23;;;12.40;99.90;;;;;;5128331;27;39204;-77
2021/11/13 03:49:59;;;;;;;29.77;13.25;;;12.40;99.90;;;;;;5107424;27;38138;-78
2021/11/13 03:52:25;;;;;;;36.28;12.50;;;12.40;99.90;;;;;;5115170;27;36704;-77
2021/11/13 03:54:51;;;;;;;27.48;11.75;;;12.50;99.90;;;;;;5116732;27;39849;-79
2021/11/13 03:57:17;;;;;;;33.27;12.27;;;12.50;99.90;;;;;;5114649;27;39367;-78
2021/11/13 03:59:43;;;;;;;29.85;11.15;;;12.50;99.90;;;;;;5128248;27;39676;-79
2021/11/13 04:02:10;;;;;;;23.45;11.02;;;12.60;99.90;;;;;;5131580;27;38792;-79
2021/11/13 04:04:41;;;;;;;23.63;10.95;;;12.60;99.90;;;;;;5112334;27;39464;-79
2021/11/13 04:07:08;;;;;;;27.77;10.88;;;12.60;99.90;;;;;;5140883;27;38403;-77
2021/11/13 04:09:35;;;;;;;30.05;11.35;;;12.60;99.90;;;;;;5139698;27;39498;-79
2021/11/13 04:12:06;;;;;;;26.95;8.60;;;12.60;99.90;;;;;;5112937;27;38111;-82
2021/11/13 04:14:36;;;;;;;23.83;8.23;;;12.70;99.90;;;;;;5130353;27;47362;-79
2021/11/13 04:17:03;;;;;;;30.38;7.90;;;12.60;99.90;;;;;;5121426;27;40215;-80
2021/11/13 04:19:30;;;;;;;25.25;7.18;;;12.60;99.90;;;;;;5121284;27;38149;-80
2021/11/13 04:21:56;;;;;;;25.48;7.10;;;12.70;99.90;;;;;;5129660;27;37188;-79
2021/11/13 04:24:23;;;;;;;25.58;6.30;;;12.70;99.90;;;;;;5131364;27;37515;-79
2021/11/13 04:26:49;;;;;;;28.15;7.53;;;12.70;99.90;;;;;;5127254;27;40095;-79
2021/11/13 04:29:16;;;;;;;23.95;5.60;;;12.60;99.90;;;;;;5132959;27;39979;-78
2021/11/13 04:31:42;;;;;;;18.92;5.50;;;12.60;99.90;;;;;;5125371;27;37743;-79
2021/11/13 04:34:13;;;;;;;23.20;5.75;;;12.60;99.90;;;;;;5150186;27;38473;-78
2021/11/13 04:36:44;;;;;;;26.98;5.40;;;12.60;99.90;;;;;;5127944;27;38968;-79
2021/11/13 04:39:11;;;;;;;20.98;5.25;;;12.60;99.90;;;;;;5130775;27;39798;-79
2021/11/13 04:41:38;;;;;;;22.80;5.28;;;12.70;99.90;;;;;;5136122;27;39103;-79
2021/11/13 04:44:04;;;;;;;22.23;5.55;;;12.70;99.90;;;;;;5135704;27;37453;-79
2021/11/13 04:46:30;;;;;;;23.67;4.25;;;12.70;99.90;;;;;;5128726;27;40028;-79
2021/11/13 04:48:56;;;;;;;17.05;3.92;;;12.70;99.90;;;;;;5141078;27;39034;-78
2021/11/13 04:51:23;;;;;;;28.63;4.35;;;12.70;99.90;;;;;;5124495;27;36148;-79
2021/11/13 04:53:49;;;;;;;11.48;2.50;;;12.70;99.90;;;;;;5140406;27;39078;-79
2021/11/13 04:56:16;;;;;;;14.45;3.50;;;12.70;99.90;;;;;;5136731;27;37985;-78
2021/11/13 04:58:42;;;;;;;11.05;2.00;;;12.60;99.90;;;;;;5125920;27;38578;-79
2021/11/13 05:01:09;;;;;;;10.15;2.00;;;12.60;99.90;;;;;;5121306;27;37401;-78
2021/11/13 05:03:35;;;;;;;8.68;2.05;;;12.50;99.90;;;;;;5134945;27;37773;-77
2021/11/13 05:06:01;;;;;;;7.07;1.73;;;12.60;99.90;;;;;;5135587;27;39215;-78
2021/11/13 05:08:27;;;;;;;13.15;2.03;;;12.60;99.90;;;;;;5134117;27;38575;-78
2021/11/13 05:10:54;;;;;;;8.57;1.73;;;12.60;99.90;;;;;;5137725;27;36944;-79
2021/11/13 05:13:20;;;;;;;9.75;2.33;;;12.60;99.90;;;;;;5134499;27;38280;-77
2021/11/13 05:15:47;;;;;;;20.70;2.42;;;12.70;99.90;;;;;;5131149;27;39783;-77
2021/11/13 05:18:13;;;;;;;8.88;1.60;;;12.70;99.90;;;;;;5138606;27;38769;-80
2021/11/13 05:20:39;;;;;;;13.30;2.13;;;12.70;99.90;;;;;;5130502;27;37954;-79
2021/11/13 05:23:06;;;;;;;13.75;2.13;;;12.80;99.90;;;;;;5126010;27;38917;-79
2021/11/13 05:25:32;;;;;;;9.20;1.87;;;12.80;99.90;;;;;;5122564;27;38321;-79
2021/11/13 05:27:59;;;;;;;7.95;2.08;;;12.80;99.90;;;;;;5114512;27;37980;-80
2021/11/13 05:30:27;;;;;;;17.75;2.22;;;12.80;99.90;;;;;;5113895;27;37347;-78
2021/11/13 05:32:54;;;;;;;12.27;2.63;;;12.80;99.90;;;;;;5133634;27;40334;-78
2021/11/13 05:35:21;;;;;;;12.00;2.72;;;12.80;99.90;;;;;;5132683;27;37941;-77
2021/11/13 05:37:49;;;;;;;9.68;1.95;;;12.80;99.90;;;;;;5134146;27;38556;-78
2021/11/13 05:40:16;;;;;;;12.33;2.50;;;12.80;99.90;;;;;;5133189;27;36574;-79
2021/11/13 05:42:43;;;;;;;6.38;1.83;;;12.80;99.90;;;;;;5116968;27;38019;-79
2021/11/13 05:45:11;;;;;;;9.45;2.13;;;12.80;99.90;;;;;;5111255;27;39303;-79
2021/11/13 05:47:38;;;;;;;8.13;2.33;;;12.80;99.90;;;;;;5108381;27;38707;-80
2021/11/13 05:50:09;;;;;;;8.82;1.77;;;12.80;99.90;;;;;;5110117;27;38571;-79
2021/11/13 05:52:35;;;;;;;5.35;1.70;;;12.70;99.90;;;;;;5126551;27;48516;-79
2021/11/13 05:55:02;;;;;;;7.68;1.80;;;12.80;99.90;;;;;;5133159;27;39401;-79
2021/11/13 05:57:29;;;;;;;5.15;1.73;;;12.80;99.90;;;;;;5133640;27;39215;-77
2021/11/13 05:59:55;;;;;;;5.35;1.67;;;12.80;99.90;;;;;;5129399;27;37806;-77
2021/11/13 06:02:22;;;;;;;10.98;2.70;;;12.80;99.90;;;;;;5134506;27;38678;-77
2021/11/13 06:04:48;;;;;;;4.57;2.00;;;12.80;99.90;;;;;;5134250;27;40005;-77
2021/11/13 06:07:14;;;;;;;9.18;2.28;;;12.80;99.90;;;;;;5134203;27;37773;-78
2021/11/13 06:09:40;;;;;;;4.80;1.77;;;12.80;99.90;;;;;;5131618;27;35695;-79
2021/11/13 06:12:07;;;;;;;7.63;2.33;;;12.90;99.90;;;;;;5136687;27;39615;-79
2021/11/13 06:14:33;;;;;;;5.63;2.03;;;12.90;99.90;;;;;;5134466;27;38128;-78
2021/11/13 06:16:59;;;;;;;7.95;2.50;;;12.90;99.90;;;;;;5125941;27;38784;-78
2021/11/13 06:19:25;;;;;;;7.47;2.30;;;12.90;99.90;;;;;;5116195;27;37753;-78
2021/11/13 06:21:51;;;;;;;8.25;2.80;;;12.90;99.90;;;;;;5151262;27;40085;-79
2021/11/13 06:24:17;;;;;;;8.73;2.20;;;12.90;99.90;;;;;;5139641;27;40122;-79
2021/11/13 06:26:43;;;;;;;7.28;2.33;;;12.90;99.90;;;;;;5150101;27;38292;-76
2021/11/13 06:29:09;;;;;;;9.55;2.13;;;12.90;99.90;;;;;;5137771;27;35959;-78
2021/11/13 06:31:36;;;;;;;6.43;1.80;;;12.90;99.90;;;;;;5138708;27;39680;-77
2021/11/13 06:34:02;;;;;;;8.80;2.17;;;12.90;99.90;;;;;;5156342;27;39096;-78
2021/11/13 06:36:28;;;;;;;10.05;1.70;;;12.90;99.90;;;;;;5136020;27;39656;-77
2021/11/13 06:38:54;;;;;;;7.75;1.40;;;12.90;99.90;;;;;;5130132;27;38065;-79
2021/11/13 06:41:25;;;;;;;9.80;1.80;;;12.90;99.90;;;;;;5136621;27;37600;-78
2021/11/13 06:43:52;;;;;;;11.48;2.33;;;12.90;99.90;;;;;;5157156;27;38444;-78
2021/11/13 06:46:19;;;;;;;8.77;1.20;;;12.90;99.90;;;;;;5155860;27;37908;-80
2021/11/13 06:48:45;;;;;;;6.53;1.35;;;13.00;99.90;;;;;;5132406;27;36975;-77
2021/11/13 06:51:11;;;;;;;9.55;2.10;;;13.00;99.90;;;;;;5117550;27;39342;-79
2021/11/13 06:53:38;;;;;;;10.95;2.38;;;13.00;99.90;;;;;;5123510;27;39076;-80
2021/11/13 06:56:04;;;;;;;12.82;3.15;;;13.00;99.90;;;;;;5130337;27;39682;-80
2021/11/13 06:58:30;;;;;;;10.63;3.03;;;13.00;99.90;;;;;;5134785;27;37765;-78
2021/11/13 07:00:56;;;;;;;8.95;2.80;;;13.10;99.90;;;;;;5133648;27;35866;-78
2021/11/13 07:03:23;;;;;;;12.65;3.92;;;13.00;99.90;;;;;;5131739;27;38198;-78
2021/11/13 07:05:49;;;;;;;17.98;4.10;;;13.10;99.90;;;;;;5139641;27;37958;-79
2021/11/13 07:08:15;;;;;;;19.35;5.55;;;13.10;99.90;;;;;;5132704;27;37151;-79
2021/11/13 07:10:43;;;;;;;11.98;4.35;;;13.20;99.90;;;;;;5136100;27;38340;-79
2021/11/13 07:13:09;;;;;;;13.55;4.65;;;13.20;99.90;;;;;;5128940;27;37925;-78
2021/11/13 07:15:36;;;;;;;12.50;4.15;;;13.20;99.90;;;;;;5127063;27;36940;-79
2021/11/13 07:18:03;;;;;;;16.02;4.35;;;13.10;99.90;;;;;;5131419;27;37675;-81
2021/11/13 07:20:31;;;;;;;13.25;3.30;;;13.20;99.90;;;;;;5131100;27;40583;-78
2021/11/13 07:22:57;;;;;;;12.68;4.07;;;13.10;99.90;;;;;;5131777;27;37455;-79
2021/11/13 07:25:25;;;;;;;20.25;3.97;;;13.20;99.90;;;;;;5147320;27;37713;-78
2021/11/13 07:27:52;;;;;;;8.50;3.20;;;13.20;99.90;;;;;;5128714;27;36157;-78
2021/11/13 07:30:20;;;;;;;14.73;3.15;;;13.30;99.90;;;;;;5156216;27;39812;-77
2021/11/13 07:32:48;;;;;;;16.33;3.50;;;13.20;99.90;;;;;;5132779;27;40820;-77
2021/11/13 07:35:14;;;;;;;11.48;2.25;;;13.30;99.90;;;;;;5149450;27;38161;-78
2021/11/13 07:37:40;;;;;;;16.20;2.83;;;13.30;99.90;;;;;;5164714;27;38278;-76
2021/11/13 07:40:08;;;;;;;9.85;2.50;;;13.30;99.90;;;;;;5156744;27;38977;-78
2021/11/13 07:42:34;;;;;;;7.40;2.50;;;13.40;99.90;;;;;;5162573;27;37811;-76
2021/11/13 07:45:04;;;;;;;12.70;2.70;;;13.40;99.90;;;;;;5157082;27;37901;-77
2021/11/13 07:47:31;;;;;;;10.38;2.75;;;13.40;99.90;;;;;;5152588;27;48557;-76
2021/11/13 07:49:57;;;;;;;10.57;2.45;;;13.40;99.90;;;;;;5154580;27;39784;-76
2021/11/13 07:52:23;;;;;;;9.20;1.90;;;13.50;99.90;;;;;;5136673;27;37590;-76
2021/11/13 07:54:49;;;;;;;8.75;2.28;;;13.50;99.90;;;;;;5150504;27;37665;-77
2021/11/13 07:57:15;;;;;;;11.05;2.33;;;13.50;99.90;;;;;;5131208;27;37184;-76
2021/11/13 07:59:41;;;;;;;4.25;1.88;;;13.50;99.90;;;;;;5138029;27;38152;-76
2021/11/13 08:02:08;;;;;;;6.78;1.80;;;13.50;99.90;;;;;;5135807;27;38057;-76
2021/11/13 08:04:34;;;;;;;3.95;1.63;;;13.50;99.90;;;;;;5135209;27;39145;-76
2021/11/13 08:07:00;;;;;;;7.35;1.90;;;13.60;99.90;;;;;;5139543;27;36835;-77
2021/11/13 08:09:26;;;;;;;9.00;2.60;;;13.60;99.90;;;;;;5137450;27;39858;-77
2021/11/13 08:11:52;;;;;;;6.30;2.45;;;13.60;99.90;;;;;;5140196;27;38430;-77
2021/11/13 08:14:18;;;;;;;5.53;1.90;;;13.60;99.90;;;;;;5136094;27;36838;-75
2021/11/13 08:16:45;;;;;;;3.50;1.60;;;13.50;99.90;;;;;;5144939;27;38017;-77
2021/11/13 08:19:14;;;;;;;6.93;2.33;;;13.50;99.90;;;;;;5133422;27;38629;-77
2021/11/13 08:21:40;;;;;;;5.90;1.85;;;13.60;99.90;;;;;;5127601;27;37721;-80
2021/11/13 08:24:06;;;;;;;6.32;1.58;;;13.50;99.90;;;;;;5136073;27;37933;-76
2021/11/13 08:26:32;;;;;;;4.50;1.98;;;13.50;99.90;;;;;;5139222;27;38238;-77
2021/11/13 08:28:58;;;;;;;3.00;1.38;;;13.50;99.90;;;;;;5140787;27;40416;-76
2021/11/13 08:31:24;;;;;;;10.70;2.65;;;13.50;99.90;;;;;;5124681;27;37265;-77
2021/11/13 08:33:50;;;;;;;6.65;2.90;;;13.50;99.90;;;;;;5135436;27;37052;-77
2021/11/13 08:36:16;;;;;;;7.07;2.90;;;13.60;99.90;;;;;;5137962;27;36852;-76
2021/11/13 08:38:42;;;;;;;10.10;3.50;;;13.60;99.90;;;;;;5142261;27;39578;-77
2021/11/13 08:41:08;;;;;;;9.88;3.42;;;13.60;99.90;;;;;;5141553;27;38709;-76
2021/11/13 08:43:35;;;;;;;6.43;2.92;;;13.70;99.90;;;;;;5133738;27;37958;-77
2021/11/13 08:46:01;;;;;;;7.60;3.50;;;13.70;99.90;;;;;;5148633;27;37224;-77
2021/11/13 08:48:27;;;;;;;6.97;3.55;;;13.70;99.90;;;;;;5159341;27;47109;-77
2021/11/13 08:50:53;;;;;;;10.45;3.38;;;13.70;99.90;;;;;;5162767;27;38735;-77
2021/11/13 08:53:20;;;;;;;4.13;2.40;;;13.70;99.90;;;;;;5153660;27;39618;-78
2021/11/13 08:55:46;;;;;;;9.40;3.05;;;13.80;99.90;;;;;;5146327;27;36304;-77
2021/11/13 08:58:13;;;;;;;4.43;2.28;;;13.80;99.90;;;;;;5155221;27;38710;-76
2021/11/13 09:00:44;;;;;;;8.02;2.50;;;13.80;99.90;;;;;;5164881;27;39097;-77
2021/11/13 09:03:17;;;;;;;5.00;2.85;;;13.70;99.90;;;;;;5160326;27;38844;-76
2021/11/13 09:05:44;;;;;;;9.30;2.75;;;13.70;99.90;;;;;;5148149;27;37615;-78
2021/11/13 09:08:10;;;;;;;4.88;1.80;;;13.70;99.90;;;;;;5145988;27;39871;-77
2021/11/13 09:10:37;;;;;;;3.95;1.13;;;13.70;99.90;;;;;;5139894;27;37870;-76
2021/11/13 09:13:04;;;;;;;2.78;0.77;;;13.60;99.90;;;;;;5167200;27;38875;-79
2021/11/13 09:15:34;;;;;;;2.53;1.17;;;13.60;99.90;;;;;;5167569;27;37219;-77
2021/11/13 09:18:00;;;;;;;3.38;0.70;;;13.50;99.90;;;;;;5130478;27;38831;-77
2021/11/13 09:20:27;;;;;;;2.22;0.80;;;13.50;99.90;;;;;;5156008;27;38746;-76
2021/11/13 09:22:54;;;;;;;4.53;0.90;;;13.50;99.90;;;;;;5144667;27;37064;-76
2021/11/13 09:25:20;;;;;;;4.55;0.77;;;13.50;99.90;;;;;;5160560;27;38634;-78
2021/11/13 09:27:47;;;;;;;5.15;0.70;;;13.60;99.90;;;;;;5132114;27;39136;-77
2021/11/13 09:30:23;;;;;;;3.15;0.70;;;13.60;99.90;;;;;;5124949;27;37554;-78
2021/11/13 09:32:50;;;;;;;5.20;1.10;;;13.60;99.90;;;;;;5143174;27;37915;-78
2021/11/13 09:35:18;;;;;;;3.13;1.00;;;13.70;99.90;;;;;;5130429;27;36520;-77
2021/11/13 09:37:46;;;;;;;6.57;2.20;;;13.70;99.90;;;;;;5140148;27;39570;-78
2021/11/13 09:40:16;;;;;;;6.80;3.35;;;13.70;99.90;;;;;;5135209;27;37791;-77
2021/11/13 09:42:52;;;;;;;8.65;3.05;;;13.80;99.90;;;;;;5128209;27;37678;-75
2021/11/13 09:45:18;;;;;;;10.90;3.80;;;13.80;99.90;;;;;;5138843;27;37656;-77
2021/11/13 09:47:47;;;;;;;8.85;3.50;;;13.80;99.90;;;;;;5138407;27;37619;-76
2021/11/13 09:50:14;;;;;;;7.57;3.80;;;13.80;99.90;;;;;;5146350;27;39129;-75
2021/11/13 09:52:42;;;;;;;10.02;4.03;;;13.80;99.90;;;;;;5139550;27;39281;-77
2021/11/13 09:55:12;;;;;;;9.35;3.53;;;13.90;99.90;;;;;;5136267;27;36125;-76
2021/11/13 09:57:39;;;;;;;5.00;3.53;;;13.80;99.90;;;;;;5144636;27;39017;-77
2021/11/13 10:00:11;;;;;;;10.95;3.50;;;13.80;99.90;;;;;;5135323;27;37116;-77
2021/11/13 10:02:39;;;;;;;9.05;4.10;;;13.80;99.90;;;;;;5140243;27;47350;-77
2021/11/13 10:05:06;;;;;;;10.50;3.80;;;13.90;99.90;;;;;;5139058;27;37238;-77
2021/11/13 10:07:33;;;;;;;8.32;3.55;;;14.00;99.90;;;;;;5135053;27;37876;-76
2021/11/13 10:10:00;;;;;;;5.57;2.75;;;14.10;99.90;;;;;;5143454;27;37317;-77
2021/11/13 10:12:37;;;;;;;8.60;3.00;;;14.00;99.90;;;;;;5137394;27;38113;-77
2021/11/13 10:15:34;;;;;;;4.63;2.38;;;14.10;99.90;;;;;;5127892;27;36199;-77
2021/11/13 10:18:08;;;;;;;8.77;1.85;;;14.20;99.90;;;;;;5160870;27;48545;-78
2021/11/13 10:20:37;;;;;;;5.30;1.77;;;14.30;99.90;;;;;;5142082;27;47515;-78
2021/11/13 10:23:03;;;;;;;8.18;1.60;;;14.30;99.90;;;;;;5122284;27;38218;-78
2021/11/13 10:25:29;;;;;;;8.95;1.70;;;14.30;99.90;;;;;;5144332;27;36968;-78
2021/11/13 10:28:07;;;;;;;8.57;1.92;;;14.50;99.90;;;;;;5128779;27;38808;-78
2021/11/13 10:30:33;;;;;;;5.07;1.17;;;14.60;99.90;;;;;;5141909;27;48388;-78
2021/11/13 10:33:00;;;;;;;5.85;1.08;;;14.70;99.90;;;;;;5137799;27;38502;-77
2021/11/13 10:35:58;;;;;;;6.15;1.00;;;14.60;99.90;;;;;;5123027;27;37110;-78
2021/11/13 10:38:25;;;;;;;5.82;0.80;;;14.50;99.90;;;;;;5083188;27;39703;-76
2021/11/13 10:40:57;;;;;;;5.88;0.80;;;14.40;99.90;;;;;;5145839;27;38134;-78
2021/11/13 10:43:40;;;;;;;3.83;0.90;;;14.30;99.90;;;;;;5148269;27;38134;-77
2021/11/13 10:46:18;;;;;;;2.42;0.57;;;14.40;99.90;;;;;;5140529;27;38274;-77
2021/11/13 10:48:57;;;;;;;8.45;0.90;;;14.40;99.90;;;;;;5134614;27;40896;-77
2021/11/13 10:51:27;;;;;;;5.15;0.88;;;14.40;99.90;;;;;;5138207;27;38278;-77
2021/11/13 10:53:54;;;;;;;2.28;0.70;;;14.50;99.90;;;;;;5131127;27;37049;-77
2021/11/13 10:56:25;;;;;;;2.97;1.30;;;14.50;99.90;;;;;;5124031;27;37584;-78
2021/11/13 10:58:58;;;;;;;2.67;0.88;;;14.60;99.90;;;;;;5135586;27;39582;-78
2021/11/13 11:01:32;;;;;;;6.53;1.17;;;14.70;99.90;;;;;;5147112;27;38559;-78
2021/11/13 11:04:19;;;;;;;2.40;0.70;;;14.80;99.90;;;;;;5136483;27;38423;-78
2021/11/13 11:06:51;;;;;;;2.65;0.70;;;14.90;99.90;;;;;;5114623;27;47806;-79
2021/11/13 11:09:21;;;;;;;4.53;0.90;;;14.80;99.90;;;;;;5124421;27;39754;-78
2021/11/13 11:11:49;;;;;;;2.72;1.08;;;14.80;99.90;;;;;;5117095;27;35164;-78
2021/11/13 11:14:18;;;;;;;2.47;0.90;;;14.80;99.90;;;;;;5121889;27;38174;-78
2021/11/13 11:16:53;;;;;;;10.25;0.90;;;15.00;99.90;;;;;;5119332;27;38843;-78
2021/11/13 11:19:25;;;;;;;6.15;0.93;;;15.10;99.90;;;;;;5156092;27;40123;-78
2021/11/13 11:22:00;;;;;;;4.82;1.10;;;15.30;99.90;;;;;;5155173;27;38364;-77
2021/11/13 11:24:46;;;;;;;4.55;0.95;;;15.40;99.90;;;;;;5140039;27;38661;-78
2021/11/13 11:27:14;;;;;;;4.63;0.93;;;15.40;99.90;;;;;;5160628;27;37528;-77
2021/11/13 11:29:56;;;;;;;4.22;1.00;;;15.30;99.90;;;;;;5161406;27;39097;-78
2021/11/13 11:32:29;;;;;;;4.97;0.93;;;15.10;99.90;;;;;;5143128;27;38285;-78
2021/11/13 11:34:57;;;;;;;8.13;1.13;;;14.90;99.90;;;;;;5122389;27;37020;-78
2021/11/13 11:37:29;;;;;;;7.22;0.98;;;14.80;99.90;;;;;;5135086;27;38170;-78
2021/11/13 11:40:02;;;;;;;4.75;1.10;;;14.80;99.90;;;;;;5141337;27;39447;-78
2021/11/13 11:42:28;;;;;;;4.72;0.95;;;14.70;99.90;;;;;;5157398;27;46814;-78
2021/11/13 11:44:59;;;;;;;8.68;1.75;;;14.80;99.90;;;;;;5143002;27;39508;-78
2021/11/13 11:47:29;;;;;;;4.57;0.95;;;14.90;99.90;;;;;;5147246;27;38720;-78
2021/11/13 11:49:57;;;;;;;7.85;1.23;;;15.20;99.90;;;;;;5149777;27;37880;-78
2021/11/13 11:52:26;;;;;;;7.65;1.40;;;15.40;99.90;;;;;;5140856;27;38723;-78
2021/11/13 11:54:53;;;;;;;4.97;1.23;;;15.60;99.90;;;;;;5145222;27;39879;-79
2021/11/13 11:57:26;;;;;;;5.65;1.38;;;15.70;99.90;;;;;;5143134;27;37830;-78
2021/11/13 11:59:57;;;;;;;7.35;1.27;;;15.60;99.90;;;;;;5143404;27;38852;-78
2021/11/13 12:02:24;;;;;;;3.67;1.13;;;15.60;99.90;;;;;;5143775;27;38932;-78
2021/11/13 12:04:50;;;;;;;4.47;1.20;;;15.70;99.90;;;;;;5140397;27;39505;-78
2021/11/13 12:07:31;;;;;;;7.85;1.67;;;15.80;99.90;;;;;;5153716;27;38523;-79
2021/11/13 12:10:28;;;;;;;7.68;1.83;;;15.80;99.90;;;;;;5140039;27;39877;-78
2021/11/13 12:13:04;;;;;;;6.75;1.30;;;15.70;99.90;;;;;;5140384;27;47417;-79
2021/11/13 12:15:53;;;;;;;13.60;2.55;;;15.60;99.90;;;;;;5157591;27;48516;-78
2021/11/13 12:18:29;;;;;;;4.35;1.20;;;15.50;99.90;;;;;;5159465;27;37886;-78
2021/11/13 12:21:01;;;;;;;4.88;1.40;;;15.30;99.90;;;;;;5161900;27;38835;-77
2021/11/13 12:23:44;;;;;;;4.43;1.15;;;15.20;99.90;;;;;;5153845;27;48166;-78
2021/11/13 12:26:18;;;;;;;;;;;15.10;99.90;;;;;;5152386;27;37851;-79
2021/11/13 12:28:47;;;;;;;9.57;1.40;;;15.00;99.90;;;;;;5138519;27;36327;-79
2021/11/13 12:31:15;;;;;;;5.28;1.15;;;15.00;99.90;;;;;;5135240;27;39290;-78
2021/11/13 12:33:45;;;;;;;6.28;1.13;;;15.00;99.90;;;;;;5138033;27;39032;-78
2021/11/13 12:36:24;;;;;;;5.22;0.95;;;15.00;99.90;;;;;;5158878;27;38244;-78
2021/11/13 12:38:56;;;;;;;3.75;1.17;;;15.00;99.90;;;;;;5161228;27;36537;-77
2021/11/13 12:41:37;;;;;;;5.15;0.90;;;15.00;99.90;;;;;;5159792;27;37554;-77
2021/11/13 12:44:27;;;;;;;2.75;0.80;;;15.00;99.90;;;;;;5146690;27;38992;-78